Time;durP1;ratioP1;P1;durP2;ratioP2;P2;SDS_P1;SDS_P2;PMS_P1;PMS_P2;Temp;Humidity;BMP_temperature;BMP_pressure;BME280_temperature;BME280_humidity;BME280_pressure;Samples;Min_cycle;Max_cycle;Signal;HPM_P1;HPM_P2
2021/03/29 00:00:32;;;;;;;9.73;3.33;;;9.50;95.90;;;;;;5088221;28;20048;-71
2021/03/29 00:03:00;;;;;;;7.57;3.80;;;9.50;95.50;;;;;;5087840;28;20068;-71
2021/03/29 00:05:29;;;;;;;7.00;3.40;;;9.60;95.10;;;;;;5087686;28;20083;-71
2021/03/29 00:07:58;;;;;;;7.68;3.15;;;9.60;95.00;;;;;;5079255;28;20041;-71
2021/03/29 00:10:24;;;;;;;7.20;3.20;;;9.70;95.00;;;;;;5086961;28;20066;-71
2021/03/29 00:12:51;;;;;;;8.30;3.33;;;9.70;95.10;;;;;;5087483;28;20049;-71
2021/03/29 00:15:29;;;;;;;6.43;3.05;;;9.60;95.10;;;;;;5087302;28;20072;-72
2021/03/29 00:17:55;;;;;;;9.13;3.42;;;9.80;94.80;;;;;;5087301;28;20087;-71
2021/03/29 00:20:28;;;;;;;8.65;3.40;;;9.70;95.10;;;;;;5087550;28;20473;-71
2021/03/29 00:23:00;;;;;;;7.22;3.42;;;9.80;95.30;;;;;;5087321;28;20044;-71
2021/03/29 00:25:28;;;;;;;11.65;4.15;;;9.80;95.00;;;;;;5087247;28;20124;-71
2021/03/29 00:27:54;;;;;;;10.90;3.35;;;9.80;95.00;;;;;;5087636;28;20079;-71
2021/03/29 00:30:23;;;;;;;8.05;3.60;;;9.80;94.70;;;;;;5088033;28;20080;-71
2021/03/29 00:32:51;;;;;;;7.60;3.05;;;9.80;95.00;;;;;;5087601;28;20119;-71
2021/03/29 00:35:18;;;;;;;9.55;3.60;;;9.80;94.80;;;;;;5087850;28;20253;-70
2021/03/29 00:37:51;;;;;;;10.50;3.10;;;9.70;95.00;;;;;;5087640;28;20497;-71
2021/03/29 00:40:18;;;;;;;10.75;3.47;;;9.70;94.80;;;;;;5086965;28;20040;-71
2021/03/29 00:42:47;;;;;;;10.00;3.75;;;9.70;95.00;;;;;;5087128;28;20109;-71
2021/03/29 00:45:19;;;;;;;9.18;3.35;;;9.70;95.00;;;;;;5087420;28;20489;-71
2021/03/29 00:47:47;;;;;;;11.57;3.80;;;9.70;95.10;;;;;;5086806;28;20051;-71
2021/03/29 00:50:23;;;;;;;14.35;3.83;;;9.60;95.10;;;;;;5087613;28;20056;-71
2021/03/29 00:52:51;;;;;;;8.32;3.70;;;9.70;95.00;;;;;;5086828;28;20049;-71
2021/03/29 00:55:19;;;;;;;12.38;3.88;;;9.70;95.10;;;;;;5086768;28;20052;-71
2021/03/29 00:57:45;;;;;;;10.18;3.65;;;9.80;95.00;;;;;;5086373;28;20071;-71
2021/03/29 01:00:17;;;;;;;8.98;3.70;;;9.80;94.90;;;;;;5086589;28;20044;-71
2021/03/29 01:02:44;;;;;;;8.15;3.38;;;9.90;94.90;;;;;;5087026;28;20048;-71
2021/03/29 01:05:20;;;;;;;9.43;4.50;;;9.80;95.20;;;;;;5086530;28;20041;-71
2021/03/29 01:07:48;;;;;;;9.98;3.70;;;9.70;95.20;;;;;;5084547;28;20489;-71
2021/03/29 01:10:14;;;;;;;7.95;3.60;;;9.80;95.20;;;;;;5086535;28;20056;-71
2021/03/29 01:12:41;;;;;;;8.70;3.60;;;9.90;95.10;;;;;;5086260;28;20052;-71
2021/03/29 01:15:10;;;;;;;9.77;3.60;;;9.80;95.00;;;;;;5086320;28;20048;-71
2021/03/29 01:17:39;;;;;;;17.25;4.20;;;9.80;95.10;;;;;;5086804;28;20123;-71
2021/03/29 01:20:04;;;;;;;6.85;3.50;;;9.80;94.90;;;;;;5086778;28;20053;-71
2021/03/29 01:22:43;;;;;;;11.82;3.80;;;9.80;95.00;;;;;;5086177;28;20044;-71
2021/03/29 01:25:21;;;;;;;10.35;3.53;;;9.80;95.00;;;;;;5086257;28;20051;-71
2021/03/29 01:27:58;;;;;;;10.75;3.78;;;9.80;94.90;;;;;;5085720;28;20497;-71
2021/03/29 01:30:25;;;;;;;14.45;3.90;;;9.80;94.90;;;;;;5085875;28;20040;-71
2021/03/29 01:32:54;;;;;;;10.50;4.18;;;9.80;95.30;;;;;;5086502;28;20044;-71
2021/03/29 01:35:23;;;;;;;7.22;3.60;;;9.80;94.70;;;;;;5085848;28;20057;-71
2021/03/29 01:37:50;;;;;;;6.38;3.40;;;9.90;94.80;;;;;;5085792;28;20037;-71
2021/03/29 01:40:18;;;;;;;8.52;3.90;;;9.90;94.70;;;;;;5085722;28;20135;-71
2021/03/29 01:42:46;;;;;;;6.18;3.60;;;10.00;94.70;;;;;;5085834;28;20040;-71
2021/03/29 01:45:13;;;;;;;9.52;3.53;;;10.00;94.60;;;;;;5085958;28;20084;-71
2021/03/29 01:47:40;;;;;;;8.93;3.92;;;10.00;94.70;;;;;;5083650;28;20044;-71
2021/03/29 01:50:09;;;;;;;12.18;4.13;;;10.00;94.40;;;;;;5085569;28;20060;-71
2021/03/29 01:52:35;;;;;;;10.85;3.63;;;10.10;94.50;;;;;;5085590;28;20063;-71
2021/03/29 01:55:03;;;;;;;10.60;3.70;;;10.00;94.70;;;;;;5085568;28;20071;-71
2021/03/29 01:57:29;;;;;;;8.20;3.63;;;10.10;94.40;;;;;;5085944;28;20052;-71
2021/03/29 01:59:55;;;;;;;12.23;4.53;;;10.10;94.30;;;;;;5086103;28;20045;-71
2021/03/29 02:02:22;;;;;;;11.55;3.80;;;10.20;94.30;;;;;;5085892;28;20055;-71
2021/03/29 02:04:49;;;;;;;11.90;4.18;;;10.10;94.50;;;;;;5085493;28;20044;-71
2021/03/29 02:07:18;;;;;;;9.93;3.75;;;10.00;94.60;;;;;;5085279;28;20048;-71
2021/03/29 02:09:44;;;;;;;7.75;3.65;;;10.20;94.10;;;;;;5085087;28;20083;-71
2021/03/29 02:12:11;;;;;;;6.82;4.32;;;10.20;93.90;;;;;;5085276;28;20555;-71
2021/03/29 02:14:38;;;;;;;9.10;4.15;;;10.10;94.00;;;;;;5085351;28;20052;-70
2021/03/29 02:17:07;;;;;;;15.10;4.78;;;10.10;94.20;;;;;;5085519;28;20076;-71
2021/03/29 02:19:35;;;;;;;12.15;5.07;;;10.10;94.20;;;;;;5084979;28;20048;-71
2021/03/29 02:22:02;;;;;;;12.55;4.65;;;10.10;94.10;;;;;;5085287;28;20040;-71
2021/03/29 02:24:30;;;;;;;8.40;4.20;;;10.10;94.20;;;;;;5085199;28;20116;-71
2021/03/29 02:26:58;;;;;;;9.45;4.28;;;10.10;94.00;;;;;;5085194;28;20048;-71
2021/03/29 02:29:28;;;;;;;11.43;4.95;;;10.10;94.10;;;;;;5085257;28;20073;-71
2021/03/29 02:31:58;;;;;;;9.07;4.20;;;10.20;93.80;;;;;;5084940;28;20564;-71
2021/03/29 02:34:26;;;;;;;;;;;10.20;94.00;;;;;;5084954;28;20068;-71
2021/03/29 02:36:56;;;;;;;10.55;4.50;;;10.00;94.50;;;;;;5085048;28;19984;-71
2021/03/29 02:39:23;;;;;;;10.18;4.43;;;10.10;94.00;;;;;;5084877;28;20059;-71
2021/03/29 02:41:50;;;;;;;11.10;4.93;;;10.10;94.00;;;;;;5085047;28;20126;-71
2021/03/29 02:44:17;;;;;;;12.10;5.10;;;10.20;93.80;;;;;;5085614;28;20068;-71
2021/03/29 02:46:47;;;;;;;11.32;4.65;;;10.10;94.20;;;;;;5084648;28;20037;-71
2021/03/29 02:49:15;;;;;;;9.80;4.95;;;10.10;94.00;;;;;;5084522;28;20052;-71
2021/03/29 02:51:43;;;;;;;11.90;5.32;;;10.20;93.80;;;;;;5084752;28;20115;-71
2021/03/29 02:54:10;;;;;;;13.25;4.97;;;10.20;93.90;;;;;;5085564;28;20049;-70
2021/03/29 02:56:49;;;;;;;11.88;5.40;;;10.20;93.90;;;;;;5085057;28;20124;-71
2021/03/29 02:59:19;;;;;;;9.55;4.88;;;10.10;94.20;;;;;;5084751;28;20049;-71
2021/03/29 03:01:45;;;;;;;13.73;5.07;;;10.10;94.10;;;;;;5084873;28;20056;-71
2021/03/29 03:04:13;;;;;;;11.38;5.07;;;10.10;93.90;;;;;;5084947;28;20036;-71
2021/03/29 03:06:40;;;;;;;7.97;4.50;;;10.00;93.90;;;;;;5084642;28;20074;-71
2021/03/29 03:09:12;;;;;;;10.35;4.47;;;10.10;93.80;;;;;;5077474;28;20047;-71
2021/03/29 03:11:38;;;;;;;10.40;4.80;;;10.10;94.00;;;;;;5084988;28;20086;-75
2021/03/29 03:14:08;;;;;;;10.90;5.28;;;10.00;94.40;;;;;;5084561;28;20098;-71
2021/03/29 03:16:36;;;;;;;11.18;4.68;;;10.00;94.20;;;;;;5084820;28;20049;-71
2021/03/29 03:19:03;;;;;;;12.23;5.63;;;10.00;94.10;;;;;;5084769;28;20090;-71
2021/03/29 03:21:32;;;;;;;11.38;5.63;;;10.00;93.90;;;;;;5084414;28;20051;-71
2021/03/29 03:23:58;;;;;;;12.43;5.18;;;10.00;94.30;;;;;;5084861;28;20044;-71
2021/03/29 03:26:30;;;;;;;11.30;4.45;;;9.90;94.40;;;;;;5085439;28;20071;-71
2021/03/29 03:28:56;;;;;;;13.10;5.05;;;9.90;94.10;;;;;;5085082;28;20052;-71
2021/03/29 03:31:22;;;;;;;11.43;5.38;;;10.10;94.00;;;;;;5084130;28;20044;-71
2021/03/29 03:33:50;;;;;;;9.10;5.15;;;10.00;94.10;;;;;;5084498;28;20049;-71
2021/03/29 03:36:19;;;;;;;11.15;5.82;;;10.00;94.00;;;;;;5084523;28;20052;-71
2021/03/29 03:38:47;;;;;;;9.27;5.45;;;10.00;94.00;;;;;;5084626;28;20123;-71
2021/03/29 03:41:30;;;;;;;8.32;5.18;;;9.90;94.40;;;;;;5084225;28;20051;-71
2021/03/29 03:43:58;;;;;;;10.75;5.47;;;9.90;94.30;;;;;;5084955;28;20048;-71
2021/03/29 03:46:28;;;;;;;10.02;5.47;;;9.90;94.40;;;;;;5088161;28;20178;-71
2021/03/29 03:48:57;;;;;;;13.05;6.05;;;9.80;94.50;;;;;;5088010;28;20102;-71
2021/03/29 03:51:30;;;;;;;10.75;6.18;;;9.70;94.80;;;;;;5087827;28;20044;-71
2021/03/29 03:53:56;;;;;;;9.95;5.72;;;9.70;94.90;;;;;;5088013;28;20052;-71
2021/03/29 03:56:23;;;;;;;11.40;6.25;;;9.80;94.60;;;;;;5087989;28;20041;-71
2021/03/29 03:58:52;;;;;;;10.60;6.65;;;9.70;94.60;;;;;;5087850;28;20048;-71
2021/03/29 04:01:19;;;;;;;12.35;6.18;;;9.80;94.50;;;;;;5083081;28;20049;-71
2021/03/29 04:03:44;;;;;;;12.23;5.63;;;9.80;94.40;;;;;;5086499;28;20116;-71
2021/03/29 04:06:10;;;;;;;8.48;5.50;;;9.70;94.50;;;;;;5087576;28;20055;-71
2021/03/29 04:08:36;;;;;;;13.93;5.72;;;9.70;94.60;;;;;;5087746;28;20068;-71
2021/03/29 04:11:04;;;;;;;9.52;5.60;;;9.80;94.50;;;;;;5087737;28;20091;-71
2021/03/29 04:13:30;;;;;;;11.90;6.28;;;9.80;94.30;;;;;;5087618;28;20082;-71
2021/03/29 04:16:02;;;;;;;10.20;5.53;;;9.80;94.30;;;;;;5087648;28;20400;-71
2021/03/29 04:18:33;;;;;;;11.63;5.18;;;9.90;94.10;;;;;;5087720;28;20100;-71
2021/03/29 04:20:59;;;;;;;17.08;5.80;;;9.80;94.30;;;;;;5087396;28;20048;-71
2021/03/29 04:23:28;;;;;;;11.48;5.25;;;9.90;93.90;;;;;;5087742;28;20049;-71
2021/03/29 04:25:54;;;;;;;11.25;5.22;;;10.00;93.90;;;;;;5087503;28;20071;-71
2021/03/29 04:28:21;;;;;;;13.80;6.28;;;9.90;94.20;;;;;;5087805;28;20498;-71
2021/03/29 04:30:48;;;;;;;11.25;5.80;;;9.90;94.30;;;;;;5087358;28;20068;-71
2021/03/29 04:33:14;;;;;;;10.98;5.40;;;10.00;94.20;;;;;;5076561;28;20562;-71
2021/03/29 04:35:40;;;;;;;10.63;6.22;;;10.00;94.10;;;;;;5071129;28;20063;-71
2021/03/29 04:38:07;;;;;;;10.18;5.53;;;10.00;94.10;;;;;;5085924;28;20075;-70
2021/03/29 04:40:33;;;;;;;10.68;5.38;;;10.00;94.00;;;;;;5067098;28;20045;-71
2021/03/29 04:42:59;;;;;;;13.20;6.30;;;10.00;94.30;;;;;;5095987;28;20055;-73
2021/03/29 04:45:25;;;;;;;9.43;5.18;;;9.90;94.40;;;;;;5080402;28;20083;-71
2021/03/29 04:47:51;;;;;;;12.35;6.05;;;9.90;94.70;;;;;;5056630;28;20087;-70
2021/03/29 04:50:18;;;;;;;13.52;5.55;;;9.90;94.50;;;;;;5064272;28;20043;-69
2021/03/29 04:52:44;;;;;;;13.30;5.80;;;9.90;94.50;;;;;;5084131;28;21227;-68
2021/03/29 04:55:12;;;;;;;14.88;6.55;;;9.80;94.80;;;;;;5068288;28;20125;-68
2021/03/29 04:57:38;;;;;;;10.68;5.70;;;9.80;94.70;;;;;;5077176;28;20056;-68
2021/03/29 05:00:06;;;;;;;10.88;5.72;;;9.80;94.80;;;;;;5082402;28;20508;-68
2021/03/29 05:02:32;;;;;;;14.18;6.03;;;9.80;94.80;;;;;;5077826;28;20056;-69
2021/03/29 05:04:58;;;;;;;11.75;5.78;;;9.70;94.90;;;;;;5097091;28;20047;-69
2021/03/29 05:07:23;;;;;;;9.98;5.55;;;9.70;95.00;;;;;;5093409;28;20044;-70
2021/03/29 05:09:49;;;;;;;13.35;6.43;;;9.60;95.10;;;;;;5096604;28;20098;-70
2021/03/29 05:12:19;;;;;;;14.48;5.93;;;9.60;95.10;;;;;;5101398;28;20056;-69
2021/03/29 05:14:45;;;;;;;12.70;6.40;;;9.60;95.30;;;;;;5087404;28;20048;-67
2021/03/29 05:17:12;;;;;;;10.55;6.30;;;9.60;95.00;;;;;;5066253;28;20381;-71
2021/03/29 05:19:38;;;;;;;11.18;5.55;;;9.70;95.00;;;;;;5067270;28;20048;-69
2021/03/29 05:22:06;;;;;;;12.10;5.93;;;9.70;95.00;;;;;;5076629;28;20609;-69
2021/03/29 05:24:32;;;;;;;14.48;6.45;;;9.50;95.40;;;;;;5066614;28;20044;-69
2021/03/29 05:26:58;;;;;;;7.80;5.20;;;9.60;95.40;;;;;;5090997;28;20048;-68
2021/03/29 05:29:27;;;;;;;13.63;6.35;;;9.70;95.00;;;;;;5087047;28;20094;-70
2021/03/29 05:31:57;;;;;;;12.90;5.55;;;9.50;95.40;;;;;;5089258;28;20044;-70
2021/03/29 05:34:24;;;;;;;14.80;6.90;;;9.60;95.20;;;;;;5084396;28;20056;-70
2021/03/29 05:36:53;;;;;;;10.60;6.43;;;9.50;95.50;;;;;;5088253;28;20060;-69
2021/03/29 05:39:19;;;;;;;19.60;7.20;;;9.50;95.70;;;;;;5086358;28;20089;-69
2021/03/29 05:41:45;;;;;;;11.02;5.93;;;9.50;95.70;;;;;;5095602;28;20036;-70
2021/03/29 05:44:12;;;;;;;11.48;6.25;;;9.40;95.70;;;;;;5085808;28;20323;-69
2021/03/29 05:46:41;;;;;;;14.50;6.55;;;9.50;95.60;;;;;;5095290;28;20392;-69
2021/03/29 05:49:07;;;;;;;12.35;6.05;;;9.40;95.80;;;;;;5084914;28;20090;-69
2021/03/29 05:51:40;;;;;;;14.15;6.30;;;9.40;95.80;;;;;;5086060;28;20054;-68
2021/03/29 05:54:07;;;;;;;12.05;6.15;;;9.30;96.20;;;;;;5079179;28;20055;-69
2021/03/29 05:56:35;;;;;;;9.88;6.32;;;9.30;96.20;;;;;;5095837;28;20052;-69
2021/03/29 06:01:43;;;;;;;14.75;7.03;;;9.40;96.10;;;;;;5096361;28;20048;-69
2021/03/29 06:04:15;;;;;;;12.88;6.53;;;9.40;96.10;;;;;;5083656;28;20069;-69
2021/03/29 06:06:41;;;;;;;11.18;5.78;;;9.40;95.90;;;;;;5094953;28;20044;-70
2021/03/29 06:09:08;;;;;;;14.30;7.22;;;9.40;96.30;;;;;;5082553;28;20067;-69
2021/03/29 06:11:40;;;;;;;13.52;6.05;;;9.50;96.20;;;;;;5094607;28;20075;-70
2021/03/29 06:14:16;;;;;;;12.13;5.95;;;9.50;96.10;;;;;;5085286;28;20036;-69
2021/03/29 06:16:53;;;;;;;14.30;5.95;;;9.60;95.90;;;;;;5083641;28;20103;-69
2021/03/29 06:19:47;;;;;;;14.23;6.95;;;9.60;96.00;;;;;;5085364;28;20248;-69
2021/03/29 06:22:27;;;;;;;12.43;5.70;;;9.60;96.20;;;;;;5095152;28;20170;-69
2021/03/29 06:25:15;;;;;;;14.65;5.65;;;9.60;96.00;;;;;;5085135;28;20067;-69
2021/03/29 06:27:48;;;;;;;11.02;5.50;;;9.80;95.90;;;;;;5095340;28;20051;-69
2021/03/29 06:30:17;;;;;;;12.05;5.78;;;9.90;95.40;;;;;;5084810;28;20220;-69
2021/03/29 06:33:00;;;;;;;13.05;5.57;;;9.80;96.00;;;;;;5095912;28;20040;-69
2021/03/29 06:35:29;;;;;;;11.90;5.43;;;9.80;95.60;;;;;;5074169;28;20072;-74
2021/03/29 06:38:06;;;;;;;10.17;5.27;;;9.90;95.70;;;;;;5061954;28;20040;-73
2021/03/29 06:40:34;;;;;;;13.07;5.80;;;9.90;95.70;;;;;;5072113;28;20052;-74
2021/03/29 06:43:00;;;;;;;12.63;5.35;;;9.90;95.80;;;;;;5085613;28;20052;-73
2021/03/29 06:45:27;;;;;;;12.80;4.90;;;10.00;95.70;;;;;;5080876;28;20155;-73
2021/03/29 06:47:53;;;;;;;11.35;5.25;;;10.10;95.30;;;;;;5081006;28;20040;-73
2021/03/29 06:50:26;;;;;;;13.05;5.80;;;10.00;95.60;;;;;;5068781;28;20063;-73
2021/03/29 06:52:53;;;;;;;10.15;5.18;;;10.20;95.40;;;;;;5087493;28;20040;-73
2021/03/29 06:55:24;;;;;;;16.63;5.97;;;10.20;95.60;;;;;;5081368;28;20056;-73
2021/03/29 06:58:02;;;;;;;13.65;5.75;;;10.20;95.90;;;;;;5088511;28;20526;-73
2021/03/29 07:00:38;;;;;;;14.70;5.50;;;10.20;95.60;;;;;;5074455;28;20067;-73
2021/03/29 07:03:06;;;;;;;11.10;5.40;;;10.20;95.60;;;;;;5090634;28;20111;-73
2021/03/29 07:05:34;;;;;;;10.70;5.32;;;10.30;95.60;;;;;;5084361;28;20060;-72
2021/03/29 07:08:01;;;;;;;9.25;5.22;;;10.40;95.50;;;;;;5089474;28;20052;-73
2021/03/29 07:10:28;;;;;;;12.52;4.95;;;10.40;95.00;;;;;;5079074;28;20060;-73
2021/03/29 07:12:54;;;;;;;12.80;4.80;;;10.50;95.20;;;;;;5091676;28;20115;-72
2021/03/29 07:15:20;;;;;;;10.88;5.03;;;10.50;94.90;;;;;;5084048;28;20116;-73
2021/03/29 07:17:47;;;;;;;16.48;4.82;;;10.60;95.60;;;;;;5095023;28;20036;-72
2021/03/29 07:20:23;;;;;;;9.73;4.18;;;10.70;94.40;;;;;;5087409;28;20436;-73
2021/03/29 07:22:53;;;;;;;9.60;4.45;;;10.70;94.90;;;;;;5099007;28;20040;-73
2021/03/29 07:25:21;;;;;;;15.25;5.60;;;10.70;95.60;;;;;;5088383;28;20101;-73
2021/03/29 07:27:54;;;;;;;13.77;4.93;;;10.80;95.20;;;;;;5099037;28;20036;-73
2021/03/29 07:30:44;;;;;;;10.18;4.43;;;10.80;95.00;;;;;;5088493;28;20082;-73
2021/03/29 07:33:12;;;;;;;12.35;5.07;;;10.80;94.90;;;;;;5091451;28;20072;-73
2021/03/29 07:36:04;;;;;;;13.27;4.72;;;10.90;94.60;;;;;;5075739;28;20048;-72
2021/03/29 07:38:55;;;;;;;11.40;4.70;;;10.80;94.50;;;;;;5089510;28;20154;-73
2021/03/29 07:41:40;;;;;;;10.90;4.65;;;10.90;94.50;;;;;;5072937;28;20044;-72
2021/03/29 07:44:19;;;;;;;12.18;4.25;;;11.00;94.80;;;;;;5077700;28;20040;-73
2021/03/29 07:46:56;;;;;;;7.65;3.80;;;11.10;94.80;;;;;;5083016;28;20041;-73
2021/03/29 07:49:42;;;;;;;11.98;4.53;;;11.10;94.60;;;;;;5055591;28;20070;-74
2021/03/29 07:52:35;;;;;;;10.23;4.30;;;11.20;94.80;;;;;;5081705;28;20055;-73
2021/03/29 07:55:28;;;;;;;9.27;3.97;;;11.20;94.20;;;;;;5080084;28;20056;-74
2021/03/29 07:57:57;;;;;;;16.67;4.60;;;11.30;93.90;;;;;;5085911;28;20055;-73
2021/03/29 08:00:22;;;;;;;12.70;4.80;;;11.30;94.70;;;;;;5085789;28;20071;-74
2021/03/29 08:02:49;;;;;;;10.50;4.13;;;11.40;94.90;;;;;;5089347;28;20048;-73
2021/03/29 08:05:34;;;;;;;12.95;5.00;;;11.50;94.60;;;;;;5087911;28;20060;-73
2021/03/29 08:08:02;;;;;;;16.63;4.75;;;11.50;94.60;;;;;;5097124;28;20163;-74
2021/03/29 08:10:55;;;;;;;10.50;3.97;;;11.50;94.40;;;;;;5090223;28;20536;-72
2021/03/29 08:13:39;;;;;;;15.38;4.38;;;11.60;94.70;;;;;;5090610;28;20047;-73
2021/03/29 08:16:06;;;;;;;13.02;5.32;;;11.70;93.90;;;;;;5084780;28;20140;-73
2021/03/29 08:19:06;;;;;;;10.27;4.05;;;11.60;94.60;;;;;;5098947;28;20036;-73
2021/03/29 08:21:48;;;;;;;12.65;4.40;;;11.60;93.80;;;;;;5058331;28;20052;-73
2021/03/29 08:24:30;;;;;;;10.52;4.45;;;11.80;94.60;;;;;;5087281;28;20054;-73
2021/03/29 08:26:58;;;;;;;10.38;4.75;;;11.80;94.80;;;;;;5099446;28;20086;-73
2021/03/29 08:29:29;;;;;;;9.52;4.25;;;11.90;94.10;;;;;;5089292;28;20056;-73
2021/03/29 08:32:28;;;;;;;10.18;4.20;;;11.90;94.30;;;;;;5095540;28;20054;-72
2021/03/29 08:35:05;;;;;;;11.63;4.95;;;11.90;94.20;;;;;;5083189;28;20062;-73
2021/03/29 08:37:40;;;;;;;9.30;4.65;;;11.90;94.40;;;;;;5090411;28;20063;-73
2021/03/29 08:40:17;;;;;;;8.10;4.40;;;12.00;94.80;;;;;;5089841;28;20059;-72
2021/03/29 08:42:45;;;;;;;11.75;4.97;;;12.10;94.50;;;;;;5080212;28;20036;-72
2021/03/29 08:45:16;;;;;;;14.50;4.57;;;12.20;94.50;;;;;;5086746;28;20047;-73
2021/03/29 08:47:48;;;;;;;11.52;5.20;;;12.20;93.80;;;;;;5097316;28;20048;-72
2021/03/29 08:50:16;;;;;;;9.52;5.15;;;12.30;94.60;;;;;;5083902;28;20040;-73
2021/03/29 08:52:51;;;;;;;10.43;4.50;;;12.40;95.20;;;;;;5089100;28;20058;-73
2021/03/29 08:55:20;;;;;;;13.15;4.97;;;12.50;94.40;;;;;;5086806;28;20116;-72
2021/03/29 08:57:47;;;;;;;10.85;4.25;;;12.60;93.80;;;;;;5096770;28;20107;-73
2021/03/29 09:00:19;;;;;;;11.90;4.25;;;12.60;94.00;;;;;;5082879;28;20044;-73
2021/03/29 09:02:46;;;;;;;11.05;4.22;;;12.50;94.20;;;;;;5086207;28;20044;-73
2021/03/29 09:05:13;;;;;;;10.63;4.68;;;12.60;94.30;;;;;;5071784;28;20048;-73
2021/03/29 09:07:52;;;;;;;11.75;4.70;;;12.80;94.40;;;;;;5090047;28;20040;-73
2021/03/29 09:10:26;;;;;;;15.60;5.00;;;12.90;94.70;;;;;;5082282;28;20123;-74
2021/03/29 09:12:57;;;;;;;13.23;4.30;;;12.80;93.70;;;;;;5087668;28;20071;-73
2021/03/29 09:15:25;;;;;;;14.73;5.72;;;12.90;94.20;;;;;;5087053;28;20147;-73
2021/03/29 09:17:58;;;;;;;10.88;4.72;;;12.90;94.50;;;;;;5091545;28;20044;-73
2021/03/29 09:20:31;;;;;;;15.45;5.65;;;13.00;93.50;;;;;;5088663;28;20082;-73
2021/03/29 09:22:57;;;;;;;9.98;4.25;;;12.90;93.50;;;;;;5098788;28;20093;-73
2021/03/29 09:25:44;;;;;;;14.75;5.20;;;13.00;93.80;;;;;;5084725;28;20055;-73
2021/03/29 09:31:10;;;;;;;17.35;5.25;;;13.10;94.40;;;;;;5085678;28;20048;-72
2021/03/29 09:33:42;;;;;;;12.93;5.57;;;13.10;94.10;;;;;;5088892;28;20106;-73
2021/03/29 09:36:10;;;;;;;9.20;4.60;;;13.20;94.10;;;;;;5082523;28;20060;-73
2021/03/29 09:38:42;;;;;;;13.70;4.80;;;13.20;93.40;;;;;;5099236;28;20036;-73
2021/03/29 09:41:33;;;;;;;12.15;5.25;;;13.20;93.40;;;;;;5087915;28;20059;-73
2021/03/29 09:44:06;;;;;;;16.83;5.30;;;13.20;94.10;;;;;;5099217;28;20075;-73
2021/03/29 09:46:33;;;;;;;9.13;4.65;;;13.40;93.50;;;;;;5081250;28;20040;-73
2021/03/29 09:49:15;;;;;;;13.38;5.20;;;13.40;93.40;;;;;;5091617;28;20044;-74
2021/03/29 09:51:43;;;;;;;13.23;5.35;;;13.40;93.50;;;;;;5074297;28;20050;-73
2021/03/29 09:54:32;;;;;;;12.52;5.05;;;13.40;93.90;;;;;;5096695;28;20056;-73
2021/03/29 09:57:21;;;;;;;14.23;5.22;;;13.50;92.70;;;;;;5048875;28;20056;-73
2021/03/29 09:59:52;;;;;;;14.00;4.93;;;13.60;94.00;;;;;;5073812;28;20049;-73
2021/03/29 10:02:23;;;;;;;14.68;5.97;;;13.60;93.50;;;;;;5083042;28;20083;-73
2021/03/29 10:05:00;;;;;;;14.57;5.65;;;13.60;93.50;;;;;;5084840;28;20043;-75
2021/03/29 10:07:26;;;;;;;11.23;4.95;;;13.70;93.30;;;;;;5077535;28;20032;-79
2021/03/29 10:09:59;;;;;;;13.13;5.63;;;13.50;92.00;;;;;;5072206;28;20075;-79
2021/03/29 10:12:30;;;;;;;15.25;5.72;;;13.60;93.00;;;;;;5061084;28;20052;-79
2021/03/29 10:15:09;;;;;;;11.05;5.63;;;13.60;92.60;;;;;;5067538;28;20074;-78
2021/03/29 10:17:35;;;;;;;16.00;6.15;;;13.50;92.50;;;;;;5091961;28;20077;-79
2021/03/29 10:20:10;;;;;;;12.70;5.80;;;13.70;93.70;;;;;;5085646;28;20090;-78
2021/03/29 10:22:36;;;;;;;10.95;4.75;;;13.70;93.70;;;;;;5095844;28;20031;-78
2021/03/29 10:25:06;;;;;;;13.85;6.00;;;13.70;92.70;;;;;;5085182;28;20062;-75
2021/03/29 10:27:46;;;;;;;13.15;5.32;;;13.90;92.70;;;;;;5096809;28;20060;-75
2021/03/29 10:30:20;;;;;;;11.13;5.70;;;14.00;93.60;;;;;;5085713;28;20106;-76
2021/03/29 10:32:47;;;;;;;11.52;5.25;;;14.00;92.10;;;;;;5094935;28;20314;-76
2021/03/29 10:35:14;;;;;;;13.20;6.57;;;14.10;93.00;;;;;;5085671;28;20036;-76
2021/03/29 10:37:39;;;;;;;14.82;5.90;;;14.10;93.00;;;;;;5097362;28;20535;-74
2021/03/29 10:40:06;;;;;;;11.73;6.10;;;14.20;91.60;;;;;;5074569;28;20048;-72
2021/03/29 10:42:35;;;;;;;13.85;6.15;;;14.10;92.10;;;;;;5083242;28;20039;-74
2021/03/29 10:45:04;;;;;;;15.77;6.30;;;14.30;92.60;;;;;;5069674;28;20390;-73
2021/03/29 10:47:30;;;;;;;11.88;6.40;;;14.20;92.10;;;;;;5096703;28;20042;-75
2021/03/29 10:49:56;;;;;;;14.77;6.38;;;14.30;92.80;;;;;;5085965;28;20052;-79
2021/03/29 10:52:22;;;;;;;11.68;5.57;;;14.20;91.70;;;;;;5094247;28;20052;-78
2021/03/29 10:54:49;;;;;;;14.40;5.72;;;14.20;92.70;;;;;;5087674;28;20058;-77
2021/03/29 10:57:16;;;;;;;14.77;5.70;;;14.30;93.00;;;;;;5080459;28;20032;-77
2021/03/29 10:59:41;;;;;;;14.27;6.20;;;14.50;92.60;;;;;;5084864;28;20195;-78
2021/03/29 11:02:07;;;;;;;12.63;6.00;;;14.70;93.20;;;;;;5099976;28;20032;-77
2021/03/29 11:04:33;;;;;;;11.48;5.55;;;14.60;91.70;;;;;;5101469;28;20453;-78
2021/03/29 11:06:59;;;;;;;14.75;6.50;;;14.70;92.00;;;;;;5089764;28;20498;-78
2021/03/29 11:09:25;;;;;;;13.18;5.65;;;14.80;91.80;;;;;;5101781;28;20645;-78
2021/03/29 11:11:52;;;;;;;12.07;5.88;;;14.80;91.60;;;;;;5088306;28;20082;-77
2021/03/29 11:14:20;;;;;;;11.43;5.57;;;14.50;90.90;;;;;;5102073;28;20068;-76
2021/03/29 11:16:52;;;;;;;16.50;6.90;;;14.60;91.90;;;;;;5090200;28;20090;-77
2021/03/29 11:19:19;;;;;;;16.45;6.30;;;14.70;92.40;;;;;;5100172;28;20524;-77
2021/03/29 11:21:46;;;;;;;11.70;6.40;;;14.70;91.40;;;;;;5088432;28;20055;-77
2021/03/29 11:24:12;;;;;;;13.50;5.82;;;14.80;91.60;;;;;;5100156;28;20040;-76
2021/03/29 11:26:39;;;;;;;16.85;6.30;;;14.90;90.80;;;;;;5087429;28;20090;-77
2021/03/29 11:29:04;;;;;;;16.45;6.60;;;15.00;91.20;;;;;;5099858;28;20383;-77
2021/03/29 11:31:31;;;;;;;14.18;6.45;;;14.90;91.00;;;;;;5087979;28;20436;-74
2021/03/29 11:33:57;;;;;;;13.95;5.43;;;15.10;92.60;;;;;;5097526;28;20300;-77
2021/03/29 11:36:23;;;;;;;16.48;5.78;;;15.10;91.20;;;;;;5080225;28;20292;-77
2021/03/29 11:38:49;;;;;;;14.50;6.70;;;15.30;90.70;;;;;;5098815;28;20132;-78
2021/03/29 11:41:19;;;;;;;12.27;5.82;;;15.30;91.40;;;;;;5090685;28;20135;-77
2021/03/29 11:43:45;;;;;;;13.98;6.50;;;15.30;90.30;;;;;;5100913;28;20040;-78
2021/03/29 11:46:11;;;;;;;13.57;6.30;;;15.40;90.20;;;;;;5066378;28;20058;-76
2021/03/29 11:48:36;;;;;;;13.20;5.68;;;15.30;90.10;;;;;;5084254;28;20488;-76
2021/03/29 11:51:03;;;;;;;15.57;5.75;;;15.30;90.80;;;;;;5087721;28;20055;-78
2021/03/29 11:53:29;;;;;;;17.85;6.30;;;15.50;90.70;;;;;;5092327;28;20040;-77
2021/03/29 11:55:55;;;;;;;17.77;7.00;;;15.50;91.20;;;;;;5081316;28;20269;-77
2021/03/29 11:58:21;;;;;;;14.82;5.72;;;15.60;90.60;;;;;;5100224;28;20120;-76
2021/03/29 12:00:52;;;;;;;18.10;6.68;;;15.70;90.20;;;;;;5089285;28;20062;-78
2021/03/29 12:05:49;;;;;;;13.93;6.43;;;15.80;90.20;;;;;;5089598;28;20479;-78
2021/03/29 12:13:35;;;;;;;12.65;6.10;;;15.90;88.30;;;;;;5082278;28;20257;-77
2021/03/29 12:16:03;;;;;;;17.63;7.18;;;16.00;88.60;;;;;;5087767;28;20103;-77
2021/03/29 12:18:36;;;;;;;11.95;6.18;;;15.80;88.20;;;;;;5097237;28;20446;-77
2021/03/29 12:21:04;;;;;;;14.25;6.40;;;15.90;90.50;;;;;;5075363;28;20056;-78
2021/03/29 12:23:31;;;;;;;13.65;5.93;;;16.20;90.10;;;;;;5098237;28;20044;-77
2021/03/29 12:25:58;;;;;;;11.80;6.05;;;16.40;89.20;;;;;;5088603;28;20044;-77
2021/03/29 12:28:28;;;;;;;12.18;5.70;;;16.40;86.80;;;;;;5099845;28;20077;-77
2021/03/29 12:30:55;;;;;;;14.13;6.30;;;16.40;86.40;;;;;;5089765;28;20127;-78
2021/03/29 12:33:22;;;;;;;14.05;6.22;;;16.50;87.00;;;;;;5101864;28;20063;-77
2021/03/29 12:35:49;;;;;;;15.45;6.22;;;16.20;87.70;;;;;;5088949;28;20131;-77
2021/03/29 12:38:16;;;;;;;11.30;5.70;;;16.40;87.20;;;;;;5099173;28;20451;-76
2021/03/29 12:40:44;;;;;;;11.10;6.10;;;16.40;87.10;;;;;;5074813;28;20052;-77
2021/03/29 12:43:16;;;;;;;14.27;5.78;;;16.40;87.10;;;;;;5080654;28;20059;-78
2021/03/29 12:45:44;;;;;;;17.15;5.95;;;16.70;88.30;;;;;;5074864;28;20113;-77
2021/03/29 12:48:13;;;;;;;13.10;5.78;;;16.90;87.50;;;;;;5081160;28;20059;-79
2021/03/29 12:50:39;;;;;;;12.18;5.40;;;17.10;87.80;;;;;;5072882;28;20071;-77
2021/03/29 12:53:05;;;;;;;15.20;5.85;;;17.20;84.10;;;;;;5087780;28;20040;-79
2021/03/29 12:55:31;;;;;;;14.88;6.38;;;17.20;84.70;;;;;;5087199;28;20040;-78
2021/03/29 12:57:58;;;;;;;10.50;5.88;;;17.40;85.60;;;;;;5096131;28;20052;-78
2021/03/29 13:00:29;;;;;;;9.00;5.47;;;17.30;82.80;;;;;;5087407;28;20083;-77
2021/03/29 13:02:58;;;;;;;10.05;5.28;;;17.30;83.80;;;;;;5096604;28;20573;-77
2021/03/29 13:08:03;;;;;;;13.20;5.50;;;17.50;85.60;;;;;;5084399;28;20045;-79
2021/03/29 13:12:59;;;;;;;10.35;5.45;;;17.60;82.80;;;;;;5095466;28;20054;-79
2021/03/29 13:15:27;;;;;;;11.43;5.15;;;17.80;84.10;;;;;;5070310;28;20060;-77